Time;durP1;ratioP1;P1;durP2;ratioP2;P2;SDS_P1;SDS_P2;PMS_P1;PMS_P2;Temp;Humidity;BMP_temperature;BMP_pressure;BME280_temperature;BME280_humidity;BME280_pressure;Samples;Min_cycle;Max_cycle;Signal;HPM_P1;HPM_P2
2021/04/24 00:02:23;;;;;;;6.68;6.07;;;12.60;99.90;;;;;;5010731;28;20022;-77
2021/04/24 00:04:48;;;;;;;6.88;6.28;;;12.60;99.90;;;;;;5007962;28;20023;-76
2021/04/24 00:07:16;;;;;;;11.27;6.72;;;12.60;99.90;;;;;;5014326;28;20046;-76
2021/04/24 00:09:42;;;;;;;8.90;6.68;;;12.60;99.90;;;;;;5008145;28;20030;-77
2021/04/24 00:12:08;;;;;;;8.00;7.20;;;12.60;99.90;;;;;;4996823;28;20033;-76
2021/04/24 00:14:34;;;;;;;11.27;6.90;;;12.70;99.90;;;;;;5006471;28;20064;-76
2021/04/24 00:17:00;;;;;;;7.97;6.68;;;12.70;99.90;;;;;;5012464;28;20044;-76
2021/04/24 00:19:26;;;;;;;7.15;6.50;;;12.70;99.90;;;;;;5011899;28;20014;-76
2021/04/24 00:21:52;;;;;;;8.80;7.43;;;12.70;99.90;;;;;;5004882;28;20110;-77
2021/04/24 00:24:17;;;;;;;7.18;6.57;;;12.60;99.90;;;;;;5014382;28;20030;-76
2021/04/24 00:26:43;;;;;;;7.97;6.47;;;12.70;99.90;;;;;;5010586;28;20026;-76
2021/04/24 00:29:09;;;;;;;7.05;5.95;;;12.70;99.90;;;;;;5011374;28;20105;-76
2021/04/24 00:31:34;;;;;;;7.20;6.35;;;12.70;99.90;;;;;;5010435;28;20026;-76
2021/04/24 00:34:00;;;;;;;7.43;6.00;;;12.60;99.90;;;;;;5015582;28;20105;-76
2021/04/24 00:36:26;;;;;;;6.55;5.88;;;12.60;99.90;;;;;;4996619;28;20033;-76
2021/04/24 00:38:52;;;;;;;8.90;7.13;;;12.60;99.90;;;;;;5014438;28;20424;-77
2021/04/24 00:41:17;;;;;;;11.38;5.32;;;12.60;99.90;;;;;;4991149;28;20069;-77
2021/04/24 00:43:43;;;;;;;6.88;5.70;;;12.60;99.90;;;;;;5012763;28;20029;-76
2021/04/24 00:46:14;;;;;;;21.85;5.60;;;12.70;99.90;;;;;;4983633;28;20457;-76
2021/04/24 00:48:40;;;;;;;6.28;5.40;;;12.70;99.90;;;;;;5003940;28;20028;-76
2021/04/24 00:51:07;;;;;;;9.20;5.85;;;12.70;99.90;;;;;;5009161;28;20659;-77
2021/04/24 00:53:34;;;;;;;7.97;4.70;;;12.70;99.90;;;;;;5013408;28;20548;-76
2021/04/24 00:56:00;;;;;;;10.52;5.68;;;12.70;99.90;;;;;;5014104;28;20060;-77
2021/04/24 00:58:26;;;;;;;13.18;6.07;;;12.70;99.90;;;;;;5015426;28;20400;-76
2021/04/24 01:00:52;;;;;;;6.18;5.18;;;12.70;99.90;;;;;;4989673;28;20026;-77
2021/04/24 01:03:18;;;;;;;6.50;4.63;;;12.80;99.90;;;;;;5011355;28;20018;-76
2021/04/24 01:05:45;;;;;;;9.70;6.65;;;12.80;99.90;;;;;;5006946;28;20152;-75
2021/04/24 01:08:11;;;;;;;8.20;5.30;;;12.80;99.90;;;;;;5001675;28;20097;-76
2021/04/24 01:10:39;;;;;;;7.80;4.97;;;12.70;99.90;;;;;;5005453;28;20592;-77
2021/04/24 01:13:07;;;;;;;7.55;5.05;;;12.70;99.90;;;;;;4993596;28;20168;-77
2021/04/24 01:15:33;;;;;;;8.98;5.78;;;12.70;99.90;;;;;;5001387;28;20029;-76
2021/04/24 01:17:59;;;;;;;9.25;5.57;;;12.60;99.90;;;;;;5008512;28;20413;-77
2021/04/24 01:20:26;;;;;;;6.43;4.93;;;12.70;99.90;;;;;;5010578;28;20387;-77
2021/04/24 01:22:52;;;;;;;5.38;4.78;;;12.70;99.90;;;;;;5010706;28;20026;-76
2021/04/24 01:25:21;;;;;;;13.00;4.93;;;12.60;99.90;;;;;;5010514;28;20109;-76
2021/04/24 01:27:48;;;;;;;6.75;4.68;;;12.70;99.90;;;;;;4990436;28;20022;-76
2021/04/24 01:30:16;;;;;;;8.50;5.25;;;12.70;99.90;;;;;;5009981;28;20030;-76
2021/04/24 01:32:42;;;;;;;7.97;4.65;;;12.80;99.90;;;;;;5006903;28;20026;-77
2021/04/24 01:35:14;;;;;;;8.48;4.85;;;12.80;99.90;;;;;;5007259;28;20072;-75
2021/04/24 01:37:40;;;;;;;8.70;5.05;;;12.80;99.90;;;;;;5006081;28;20030;-76
2021/04/24 01:40:08;;;;;;;5.75;4.30;;;12.80;99.90;;;;;;5010460;28;20411;-76
2021/04/24 01:42:34;;;;;;;5.43;4.10;;;12.80;99.90;;;;;;4993019;28;20392;-76
2021/04/24 01:45:00;;;;;;;7.05;4.68;;;12.90;99.90;;;;;;5002762;28;20022;-76
2021/04/24 01:47:26;;;;;;;7.47;4.93;;;12.80;99.90;;;;;;5007231;28;20045;-76
2021/04/24 01:49:52;;;;;;;7.80;4.88;;;12.90;99.90;;;;;;5011132;28;20068;-76
2021/04/24 01:52:18;;;;;;;10.60;4.57;;;12.80;99.90;;;;;;5003384;28;20076;-76
2021/04/24 01:54:43;;;;;;;7.32;4.82;;;12.80;99.90;;;;;;4987874;28;20108;-76
2021/04/24 01:57:09;;;;;;;8.80;4.60;;;12.80;99.90;;;;;;4990333;28;20028;-76
2021/04/24 01:59:36;;;;;;;6.05;4.25;;;12.80;99.90;;;;;;5005820;28;20092;-77
2021/04/24 02:02:02;;;;;;;5.97;4.43;;;12.80;99.90;;;;;;4995833;28;20034;-76
2021/04/24 02:04:29;;;;;;;11.57;5.75;;;12.70;99.90;;;;;;5003422;28;20030;-75
2021/04/24 02:06:55;;;;;;;6.00;5.50;;;12.60;99.90;;;;;;5007552;28;20041;-75
2021/04/24 02:09:22;;;;;;;5.22;3.88;;;12.60;99.90;;;;;;5003319;28;20080;-75
2021/04/24 02:12:03;;;;;;;14.57;5.93;;;12.60;99.90;;;;;;5007229;28;20079;-75
2021/04/24 02:14:28;;;;;;;10.13;4.78;;;12.60;99.90;;;;;;5008791;28;20077;-76
2021/04/24 02:16:54;;;;;;;6.60;4.28;;;12.50;99.90;;;;;;5005022;28;20055;-76
2021/04/24 02:19:20;;;;;;;5.80;4.40;;;12.50;99.90;;;;;;5010083;28;20064;-75
2021/04/24 02:21:46;;;;;;;7.47;4.40;;;12.50;99.90;;;;;;5002445;28;20029;-75
2021/04/24 02:24:11;;;;;;;6.53;4.35;;;12.50;99.90;;;;;;5009778;28;20029;-76
2021/04/24 02:26:37;;;;;;;13.63;6.72;;;12.40;99.90;;;;;;5001383;28;20034;-76
2021/04/24 02:29:03;;;;;;;7.03;5.53;;;12.40;99.90;;;;;;5006434;28;20033;-77
2021/04/24 02:31:29;;;;;;;6.38;4.95;;;12.40;99.90;;;;;;4994628;28;20022;-77
2021/04/24 02:33:55;;;;;;;7.47;3.95;;;12.40;99.90;;;;;;5014509;28;20036;-76
2021/04/24 02:36:20;;;;;;;9.85;4.57;;;12.30;99.90;;;;;;5012616;28;20596;-75
2021/04/24 02:38:52;;;;;;;8.68;4.40;;;12.30;99.90;;;;;;5010079;28;20018;-75
2021/04/24 02:41:18;;;;;;;;;;;12.30;99.90;;;;;;5007756;28;20037;-75
2021/04/24 02:43:45;;;;;;;7.95;4.22;;;12.30;99.90;;;;;;5012006;28;19920;-76
2021/04/24 02:46:11;;;;;;;11.98;4.20;;;12.40;99.90;;;;;;5011907;28;20069;-75
2021/04/24 02:48:37;;;;;;;7.60;5.18;;;12.40;99.90;;;;;;4991033;28;20029;-76
2021/04/24 02:51:03;;;;;;;4.60;4.00;;;12.40;99.90;;;;;;5013720;28;20034;-76
2021/04/24 02:53:29;;;;;;;13.25;5.22;;;12.40;99.90;;;;;;5014317;28;20030;-76
2021/04/24 02:55:54;;;;;;;10.70;4.97;;;12.30;99.90;;;;;;5005246;28;20036;-75
2021/04/24 02:58:20;;;;;;;8.70;4.70;;;12.30;99.90;;;;;;5001776;28;20022;-76
2021/04/24 03:00:46;;;;;;;9.45;6.22;;;12.30;99.90;;;;;;5001553;28;20508;-76
2021/04/24 03:03:14;;;;;;;6.20;4.03;;;12.30;99.90;;;;;;5012574;28;20034;-76
2021/04/24 03:05:42;;;;;;;8.15;4.10;;;12.30;99.90;;;;;;5010263;28;20018;-75
2021/04/24 03:08:09;;;;;;;6.25;4.60;;;12.30;99.90;;;;;;5006256;28;20030;-75
2021/04/24 03:10:37;;;;;;;8.68;4.55;;;12.30;99.90;;;;;;5010854;28;20033;-76
2021/04/24 03:13:07;;;;;;;8.63;4.40;;;12.20;99.90;;;;;;5012434;28;20026;-75
2021/04/24 03:15:34;;;;;;;9.90;5.95;;;12.20;99.90;;;;;;4991566;28;20092;-76
2021/04/24 03:18:00;;;;;;;5.40;4.80;;;12.10;99.90;;;;;;5012455;28;20439;-76
2021/04/24 03:20:26;;;;;;;8.43;4.78;;;12.10;99.90;;;;;;5009980;28;20038;-76
2021/04/24 03:22:51;;;;;;;9.13;4.20;;;12.10;99.90;;;;;;5010240;28;20092;-76
2021/04/24 03:25:17;;;;;;;8.27;4.68;;;12.00;99.90;;;;;;5013586;28;20018;-77
2021/04/24 03:27:43;;;;;;;8.13;4.22;;;11.90;99.90;;;;;;5011276;28;20032;-76
2021/04/24 03:30:11;;;;;;;5.45;4.20;;;11.90;99.90;;;;;;5005379;28;20026;-76
2021/04/24 03:32:38;;;;;;;8.02;5.38;;;11.80;99.90;;;;;;5013032;28;20472;-76
2021/04/24 03:35:05;;;;;;;8.57;5.05;;;11.80;99.90;;;;;;4990063;28;20448;-76
2021/04/24 03:37:31;;;;;;;5.28;4.30;;;11.70;99.90;;;;;;4988004;28;20072;-76
2021/04/24 03:39:57;;;;;;;5.65;4.97;;;11.60;99.90;;;;;;5004128;28;20026;-76
2021/04/24 03:42:23;;;;;;;7.35;5.07;;;11.60;99.90;;;;;;4995823;28;20065;-76
2021/04/24 03:44:49;;;;;;;6.50;4.72;;;11.60;99.90;;;;;;5010620;28;20024;-76
2021/04/24 03:47:14;;;;;;;10.85;4.53;;;11.60;99.90;;;;;;5009552;28;20408;-74
2021/04/24 03:49:40;;;;;;;8.75;4.68;;;11.70;99.90;;;;;;5007930;28;20380;-76
2021/04/24 03:52:06;;;;;;;8.50;5.30;;;11.70;99.90;;;;;;5010600;28;20092;-75
2021/04/24 03:54:32;;;;;;;9.60;4.93;;;11.70;99.90;;;;;;5013339;28;20029;-76
2021/04/24 03:56:58;;;;;;;7.63;4.35;;;11.70;99.90;;;;;;5005838;28;20062;-76
2021/04/24 03:59:24;;;;;;;7.65;4.60;;;11.80;99.90;;;;;;4989006;28;20026;-76
2021/04/24 04:01:50;;;;;;;8.73;4.40;;;11.90;99.90;;;;;;5006545;28;20092;-75
2021/04/24 04:04:16;;;;;;;6.68;4.15;;;11.90;99.90;;;;;;5012899;28;20041;-75
2021/04/24 04:06:42;;;;;;;7.57;4.47;;;11.80;99.90;;;;;;5010084;28;20021;-76
2021/04/24 04:09:07;;;;;;;6.05;4.75;;;11.80;99.90;;;;;;5013045;28;20034;-76
2021/04/24 04:11:33;;;;;;;8.88;5.43;;;11.90;99.90;;;;;;4994488;28;20111;-76
2021/04/24 04:13:59;;;;;;;11.43;5.43;;;11.90;99.90;;;;;;5007829;28;20030;-76
2021/04/24 04:16:24;;;;;;;5.60;4.45;;;11.80;99.90;;;;;;5009189;28;20542;-74
2021/04/24 04:18:52;;;;;;;8.50;4.90;;;11.80;99.90;;;;;;5007205;28;20545;-75
2021/04/24 04:21:17;;;;;;;10.18;6.63;;;11.90;99.90;;;;;;4991423;28;20073;-75
2021/04/24 04:23:43;;;;;;;12.02;5.10;;;11.90;99.90;;;;;;4998666;28;20026;-76
2021/04/24 04:26:09;;;;;;;5.57;3.85;;;12.00;99.90;;;;;;5013724;28;20057;-76
2021/04/24 04:28:35;;;;;;;7.80;4.05;;;11.90;99.90;;;;;;5016775;28;20101;-76
2021/04/24 04:31:00;;;;;;;11.13;5.30;;;11.80;99.90;;;;;;5011838;28;20361;-76
2021/04/24 04:33:26;;;;;;;6.53;5.13;;;11.70;99.90;;;;;;5005529;28;20058;-75
2021/04/24 04:35:53;;;;;;;9.77;5.85;;;11.70;99.90;;;;;;4990961;28;20023;-76
2021/04/24 04:38:19;;;;;;;8.55;5.00;;;11.60;99.90;;;;;;5010861;28;20029;-76
2021/04/24 04:40:46;;;;;;;12.52;4.70;;;11.60;99.90;;;;;;5006759;28;20037;-75
2021/04/24 04:43:13;;;;;;;10.70;5.57;;;11.70;99.90;;;;;;5009375;28;20022;-75
2021/04/24 04:45:38;;;;;;;7.15;4.78;;;11.80;99.90;;;;;;5010672;28;20029;-75
2021/04/24 04:48:05;;;;;;;6.63;3.00;;;11.90;99.90;;;;;;5006781;28;20423;-76
2021/04/24 04:50:33;;;;;;;5.95;4.55;;;12.00;99.90;;;;;;5007555;28;20023;-75
2021/04/24 04:53:00;;;;;;;6.32;4.07;;;12.00;99.90;;;;;;5010017;28;20472;-76
2021/04/24 04:55:26;;;;;;;6.00;4.45;;;12.00;99.90;;;;;;5008107;28;20022;-76
2021/04/24 04:57:53;;;;;;;8.40;4.50;;;12.20;99.90;;;;;;5009120;28;20025;-75
2021/04/24 05:00:21;;;;;;;7.55;4.43;;;12.30;99.90;;;;;;5011665;28;20038;-76
2021/04/24 05:02:47;;;;;;;8.80;6.13;;;12.30;99.90;;;;;;4985634;28;21518;-76
2021/04/24 05:05:14;;;;;;;9.93;4.70;;;12.40;99.90;;;;;;5009215;28;20022;-75
2021/04/24 05:07:41;;;;;;;11.63;5.00;;;12.50;99.90;;;;;;5011959;28;20025;-76
2021/04/24 05:10:08;;;;;;;9.80;4.85;;;12.60;99.90;;;;;;5011938;28;20388;-75
2021/04/24 05:12:34;;;;;;;7.53;4.72;;;12.70;99.90;;;;;;5011646;28;20415;-76
2021/04/24 05:15:00;;;;;;;5.95;4.28;;;12.80;99.90;;;;;;5008246;28;20084;-75
2021/04/24 05:17:25;;;;;;;12.77;5.35;;;12.80;99.90;;;;;;5002656;28;20026;-75
2021/04/24 05:19:51;;;;;;;8.30;5.40;;;12.90;99.90;;;;;;4995618;28;20519;-76
2021/04/24 05:22:17;;;;;;;5.80;5.15;;;12.90;99.90;;;;;;4993364;28;20403;-75
2021/04/24 05:24:43;;;;;;;10.80;3.92;;;13.00;99.90;;;;;;5007198;28;20056;-76
2021/04/24 05:27:09;;;;;;;8.65;5.07;;;13.00;99.90;;;;;;5015942;28;20391;-75
2021/04/24 05:29:35;;;;;;;8.25;4.28;;;13.10;99.90;;;;;;4994521;28;20029;-77
2021/04/24 05:32:03;;;;;;;7.13;5.43;;;13.10;99.90;;;;;;4998517;28;20037;-78
2021/04/24 05:34:29;;;;;;;11.65;5.07;;;13.20;99.90;;;;;;4998431;28;20022;-77
2021/04/24 05:36:55;;;;;;;7.70;5.10;;;13.30;99.90;;;;;;4987994;28;20022;-76
2021/04/24 05:39:21;;;;;;;16.10;7.05;;;13.40;99.90;;;;;;5002279;28;20589;-75
2021/04/24 05:41:47;;;;;;;6.78;4.57;;;13.50;99.90;;;;;;4993093;28;20558;-76
2021/04/24 05:44:12;;;;;;;10.95;5.57;;;13.60;99.90;;;;;;4996839;28;20033;-76
2021/04/24 05:46:38;;;;;;;9.45;5.15;;;13.60;99.90;;;;;;5009837;28;20583;-76
2021/04/24 05:49:04;;;;;;;5.93;4.65;;;13.70;99.90;;;;;;4994613;28;20034;-76
2021/04/24 05:51:30;;;;;;;7.15;4.40;;;13.80;99.90;;;;;;4996447;28;20117;-77
2021/04/24 05:53:56;;;;;;;10.38;5.28;;;13.80;99.90;;;;;;5013119;28;20022;-76
2021/04/24 05:56:22;;;;;;;10.18;4.80;;;13.80;99.90;;;;;;4996421;28;20033;-77
2021/04/24 05:58:49;;;;;;;8.50;4.20;;;14.00;99.90;;;;;;5000675;28;20600;-78
2021/04/24 06:01:15;;;;;;;10.48;5.22;;;14.00;99.90;;;;;;4992426;28;20042;-77
2021/04/24 06:03:41;;;;;;;13.23;5.38;;;14.10;99.90;;;;;;4992702;28;20510;-77
2021/04/24 06:06:07;;;;;;;10.98;5.35;;;14.20;99.90;;;;;;5011237;28;20105;-77
2021/04/24 06:08:32;;;;;;;8.55;4.50;;;14.20;99.90;;;;;;5011383;28;20080;-77
2021/04/24 06:10:58;;;;;;;10.73;4.43;;;14.30;99.90;;;;;;5011386;28;20040;-76
2021/04/24 06:13:24;;;;;;;10.48;5.38;;;14.40;99.90;;;;;;5011533;28;20107;-78
2021/04/24 06:15:50;;;;;;;9.15;4.97;;;14.50;99.90;;;;;;4991388;28;20076;-75
2021/04/24 06:18:17;;;;;;;9.55;4.90;;;14.60;99.90;;;;;;5011580;28;20026;-75
2021/04/24 06:20:44;;;;;;;11.55;5.40;;;14.70;99.90;;;;;;5013560;28;20026;-76
2021/04/24 06:23:10;;;;;;;6.32;4.03;;;14.70;99.90;;;;;;5017388;28;20053;-76
2021/04/24 06:25:36;;;;;;;21.67;5.45;;;14.80;99.90;;;;;;5010791;28;20056;-75
2021/04/24 06:28:02;;;;;;;10.35;5.03;;;14.80;99.90;;;;;;5010670;28;20108;-77
2021/04/24 06:30:28;;;;;;;8.82;5.00;;;14.90;99.90;;;;;;4983234;28;20023;-78
2021/04/24 06:32:55;;;;;;;14.77;5.30;;;15.00;99.90;;;;;;4991408;28;20037;-78
2021/04/24 06:35:22;;;;;;;11.50;5.53;;;15.00;99.90;;;;;;4991611;28;20497;-77
2021/04/24 06:37:48;;;;;;;12.77;5.18;;;15.10;99.90;;;;;;4991803;28;20022;-78
2021/04/24 06:40:16;;;;;;;12.23;4.80;;;15.10;99.90;;;;;;4974308;28;20078;-78
2021/04/24 06:42:43;;;;;;;8.32;4.72;;;15.20;99.90;;;;;;5001197;28;20026;-77
2021/04/24 06:45:10;;;;;;;11.38;4.75;;;15.30;99.90;;;;;;5010678;28;20034;-77
2021/04/24 06:47:36;;;;;;;11.02;5.18;;;15.40;99.90;;;;;;4992871;28;20034;-77
2021/04/24 06:50:05;;;;;;;11.55;5.35;;;15.50;99.90;;;;;;5011362;28;20026;-77
2021/04/24 06:52:31;;;;;;;13.63;5.32;;;15.50;99.90;;;;;;5011613;28;20105;-79
2021/04/24 06:54:57;;;;;;;8.45;4.65;;;15.60;99.90;;;;;;5010961;28;20060;-78
2021/04/24 06:57:23;;;;;;;12.07;4.70;;;15.70;99.90;;;;;;5000746;28;20105;-78
2021/04/24 06:59:48;;;;;;;8.98;5.00;;;15.80;99.90;;;;;;4991733;28;20026;-78
2021/04/24 07:02:16;;;;;;;15.75;5.45;;;15.90;99.90;;;;;;4992113;28;20596;-78
2021/04/24 07:04:42;;;;;;;8.65;5.18;;;16.00;99.90;;;;;;4975508;28;20030;-78
2021/04/24 07:07:09;;;;;;;13.57;5.40;;;16.10;99.90;;;;;;4993603;28;20037;-79
2021/04/24 07:09:35;;;;;;;10.60;5.18;;;16.20;99.90;;;;;;5005087;28;20534;-78
2021/04/24 07:12:00;;;;;;;13.27;5.00;;;16.20;99.90;;;;;;4991631;28;20121;-78
2021/04/24 07:14:26;;;;;;;11.35;6.78;;;16.20;99.90;;;;;;5011259;28;20018;-78
2021/04/24 07:16:52;;;;;;;12.82;5.35;;;16.40;99.90;;;;;;5013366;28;20041;-78
2021/04/24 07:19:18;;;;;;;14.07;6.07;;;16.50;99.90;;;;;;5015288;28;20025;-78
2021/04/24 07:21:44;;;;;;;10.25;4.45;;;16.60;99.90;;;;;;5014943;28;20176;-79
2021/04/24 07:24:10;;;;;;;10.07;5.10;;;16.70;99.90;;;;;;4996707;28;20057;-77
2021/04/24 07:26:37;;;;;;;9.30;5.03;;;16.70;99.90;;;;;;5014627;28;20103;-77
2021/04/24 07:29:03;;;;;;;13.93;5.13;;;16.90;99.90;;;;;;5013784;28;20018;-77
2021/04/24 07:31:28;;;;;;;7.20;5.13;;;17.00;99.90;;;;;;4996245;28;20049;-77
2021/04/24 07:33:54;;;;;;;13.60;5.43;;;17.00;99.90;;;;;;4998018;28;20034;-78
2021/04/24 07:36:20;;;;;;;7.30;5.95;;;17.00;99.90;;;;;;4995268;28;20019;-77
2021/04/24 07:38:46;;;;;;;11.43;5.07;;;17.10;99.90;;;;;;4994695;28;20018;-77
2021/04/24 07:41:13;;;;;;;8.15;4.85;;;17.10;99.90;;;;;;4995591;28;20049;-78
2021/04/24 07:43:38;;;;;;;12.43;4.93;;;17.00;99.90;;;;;;4996040;28;20026;-77
2021/04/24 07:46:05;;;;;;;7.85;5.22;;;17.10;99.90;;;;;;5013649;28;20024;-78
2021/04/24 07:48:31;;;;;;;8.35;4.32;;;17.20;99.90;;;;;;4996953;28;20034;-77
2021/04/24 07:50:57;;;;;;;8.20;4.45;;;17.40;99.90;;;;;;5016359;28;20080;-77
2021/04/24 07:53:23;;;;;;;8.85;4.97;;;17.50;99.90;;;;;;5015489;28;20026;-77
2021/04/24 07:55:49;;;;;;;17.80;4.95;;;17.50;99.90;;;;;;5021190;28;20030;-77
2021/04/24 07:58:15;;;;;;;13.25;4.25;;;17.50;99.90;;;;;;5012800;28;20030;-77
2021/04/24 08:00:40;;;;;;;12.38;5.53;;;17.60;99.90;;;;;;4981031;28;20030;-78
2021/04/24 08:03:06;;;;;;;8.25;5.25;;;17.70;99.90;;;;;;4994729;28;20109;-77
2021/04/24 08:05:32;;;;;;;14.68;4.07;;;17.80;99.90;;;;;;5003348;28;20031;-78
2021/04/24 08:07:59;;;;;;;12.48;5.47;;;17.90;99.90;;;;;;5001682;28;20026;-77
2021/04/24 08:10:25;;;;;;;12.82;5.35;;;18.00;99.90;;;;;;5002369;28;20057;-76
2021/04/24 08:12:51;;;;;;;8.77;4.35;;;18.00;99.90;;;;;;4994134;28;20057;-77
2021/04/24 08:15:17;;;;;;;10.25;3.78;;;18.10;99.90;;;;;;4994625;28;20027;-78
2021/04/24 08:17:43;;;;;;;13.85;4.65;;;18.20;99.90;;;;;;4994293;28;20050;-78
2021/04/24 08:20:11;;;;;;;8.60;4.22;;;18.30;99.90;;;;;;5008228;28;20018;-73
2021/04/24 08:22:37;;;;;;;8.73;4.72;;;18.40;99.90;;;;;;5012864;28;20025;-73
2021/04/24 08:25:04;;;;;;;12.95;5.35;;;18.40;99.90;;;;;;5012878;28;20022;-72
2021/04/24 08:27:30;;;;;;;10.48;5.13;;;18.50;99.90;;;;;;5011946;28;20093;-72
2021/04/24 08:29:56;;;;;;;12.63;4.88;;;18.50;99.90;;;;;;5010913;28;20106;-70
2021/04/24 08:32:22;;;;;;;7.47;4.40;;;18.40;99.90;;;;;;5012340;28;20037;-70
2021/04/24 08:34:47;;;;;;;8.95;4.88;;;18.40;99.90;;;;;;5011554;28;20097;-69
2021/04/24 08:37:13;;;;;;;8.65;4.18;;;18.30;99.90;;;;;;4993578;28;20049;-72
2021/04/24 08:39:39;;;;;;;13.52;5.03;;;18.40;99.90;;;;;;4993119;28;20101;-69
2021/04/24 08:42:06;;;;;;;7.22;4.60;;;18.30;99.90;;;;;;4992512;28;20096;-67
2021/04/24 08:44:33;;;;;;;7.35;4.07;;;18.00;99.90;;;;;;4994201;28;20499;-68
2021/04/24 08:46:59;;;;;;;9.77;4.65;;;17.80;99.90;;;;;;5012486;28;20030;-69
2021/04/24 08:49:26;;;;;;;5.63;4.03;;;17.80;99.90;;;;;;5012301;28;20127;-69
2021/04/24 08:51:53;;;;;;;7.28;5.28;;;17.60;99.90;;;;;;5007310;28;20428;-71
2021/04/24 08:54:20;;;;;;;7.70;4.40;;;17.70;99.90;;;;;;4992190;28;20092;-68
2021/04/24 08:56:46;;;;;;;9.77;3.97;;;17.60;99.90;;;;;;4992511;28;20100;-69
2021/04/24 08:59:12;;;;;;;9.45;4.68;;;17.50;99.90;;;;;;4999170;28;20029;-68
2021/04/24 09:01:39;;;;;;;9.25;5.35;;;17.60;99.90;;;;;;5004766;28;20049;-68
2021/04/24 09:04:05;;;;;;;11.23;5.78;;;17.50;99.90;;;;;;5004704;28;20392;-68
2021/04/24 09:06:33;;;;;;;9.48;5.82;;;17.40;99.90;;;;;;5007143;28;20030;-70
2021/04/24 09:09:03;;;;;;;9.15;5.57;;;17.40;99.90;;;;;;5011465;28;20026;-68
2021/04/24 09:11:51;;;;;;;6.43;4.68;;;17.40;99.90;;;;;;5010961;28;20400;-74
2021/04/24 09:14:20;;;;;;;10.48;5.60;;;17.30;99.90;;;;;;5002176;28;20033;-72
2021/04/24 09:16:50;;;;;;;11.23;4.43;;;17.50;99.90;;;;;;5011593;28;20425;-75
2021/04/24 09:19:31;;;;;;;9.52;4.63;;;17.40;99.90;;;;;;5008652;28;20036;-73
2021/04/24 09:22:21;;;;;;;8.45;4.40;;;17.50;99.90;;;;;;5009757;28;20034;-73
2021/04/24 09:24:49;;;;;;;10.90;5.30;;;17.40;99.90;;;;;;5006638;28;21758;-75
2021/04/24 09:27:15;;;;;;;8.18;5.50;;;17.50;99.90;;;;;;5010885;28;20022;-71
2021/04/24 09:29:41;;;;;;;5.40;4.35;;;17.70;99.90;;;;;;5009031;28;20029;-72
2021/04/24 09:32:17;;;;;;;7.88;4.47;;;17.70;99.90;;;;;;5005399;28;20040;-73
2021/04/24 09:34:46;;;;;;;11.32;4.28;;;17.80;99.90;;;;;;5009341;28;20199;-76
2021/04/24 09:37:20;;;;;;;10.48;6.10;;;17.70;99.90;;;;;;5001018;28;20575;-73
2021/04/24 09:39:54;;;;;;;12.18;5.25;;;17.60;99.90;;;;;;4987306;28;20491;-71
2021/04/24 09:42:38;;;;;;;10.20;5.15;;;17.60;99.90;;;;;;5003898;28;20040;-72
2021/04/24 09:45:26;;;;;;;9.80;5.30;;;17.70;99.90;;;;;;5005799;28;20030;-71
2021/04/24 09:47:53;;;;;;;5.07;4.57;;;17.70;99.90;;;;;;5003961;28;20122;-72
2021/04/24 09:50:22;;;;;;;11.10;5.30;;;17.70;99.90;;;;;;5007263;28;20068;-74
2021/04/24 09:52:48;;;;;;;12.82;4.97;;;17.70;99.90;;;;;;5005692;28;20148;-73
2021/04/24 09:55:35;;;;;;;10.23;4.75;;;17.70;99.90;;;;;;5004230;28;20458;-72
2021/04/24 09:58:06;;;;;;;10.23;4.78;;;17.60;99.90;;;;;;5005514;28;20080;-71
2021/04/24 10:00:32;;;;;;;8.85;5.43;;;17.60;99.90;;;;;;4997559;28;20077;-71
2021/04/24 10:02:59;;;;;;;9.27;5.60;;;17.50;99.90;;;;;;5002962;28;20034;-71
2021/04/24 10:05:25;;;;;;;12.05;5.93;;;17.50;99.90;;;;;;5005514;28;20109;-72
2021/04/24 10:07:56;;;;;;;8.18;5.38;;;17.30;99.90;;;;;;5009045;28;20053;-71
2021/04/24 10:10:38;;;;;;;5.50;4.75;;;17.30;99.90;;;;;;5004523;28;20065;-71
2021/04/24 10:13:09;;;;;;;15.32;5.78;;;17.30;99.90;;;;;;4996436;28;20400;-72
2021/04/24 10:15:41;;;;;;;13.47;5.73;;;17.30;99.90;;;;;;5004662;28;20518;-71
2021/04/24 10:18:08;;;;;;;8.63;5.57;;;17.40;99.90;;;;;;5005419;28;20026;-72
2021/04/24 10:20:36;;;;;;;13.50;5.72;;;17.50;99.90;;;;;;5001840;28;20388;-71
2021/04/24 10:23:04;;;;;;;9.80;6.07;;;17.50;99.90;;;;;;5004228;28;20042;-71
2021/04/24 10:25:30;;;;;;;9.00;4.93;;;17.40;99.90;;;;;;5003559;28;20069;-73
2021/04/24 10:27:56;;;;;;;6.05;4.50;;;17.40;99.90;;;;;;5001820;28;20140;-70
2021/04/24 10:30:23;;;;;;;4.57;4.15;;;17.30;99.90;;;;;;5007086;28;20040;-71
2021/04/24 10:32:50;;;;;;;7.35;5.45;;;17.30;99.90;;;;;;5008354;28;20025;-71
2021/04/24 10:35:15;;;;;;;6.03;4.72;;;17.40;99.90;;;;;;5008305;28;20438;-73
2021/04/24 10:37:48;;;;;;;8.35;3.92;;;17.30;99.90;;;;;;5004592;28;20292;-71
2021/04/24 10:40:15;;;;;;;9.18;4.65;;;17.30;99.90;;;;;;5005695;28;20025;-75
2021/04/24 10:42:49;;;;;;;8.13;4.38;;;17.30;99.90;;;;;;5009491;28;20018;-79
2021/04/24 10:45:29;;;;;;;12.38;5.47;;;17.30;99.90;;;;;;5009149;28;20036;-77
2021/04/24 10:47:56;;;;;;;4.72;4.00;;;17.30;99.90;;;;;;4989642;28;20041;-78
2021/04/24 10:50:41;;;;;;;7.40;4.68;;;17.30;99.90;;;;;;5008931;28;20025;-79
2021/04/24 10:53:24;;;;;;;6.47;4.45;;;17.40;99.90;;;;;;5004373;28;20045;-77
2021/04/24 10:55:53;;;;;;;8.38;4.57;;;17.50;99.90;;;;;;5014417;28;20453;-78
2021/04/24 10:58:23;;;;;;;11.68;4.80;;;17.50;99.90;;;;;;5020676;28;20094;-77
2021/04/24 11:01:06;;;;;;;11.75;5.68;;;17.50;99.90;;;;;;5012764;28;20031;-78
2021/04/24 11:03:35;;;;;;;10.75;6.18;;;17.40;99.90;;;;;;5006110;28;20026;-79
2021/04/24 11:06:13;;;;;;;6.75;4.63;;;17.50;99.90;;;;;;5018575;28;20624;-79
2021/04/24 11:08:40;;;;;;;6.10;3.72;;;17.60;99.90;;;;;;5019587;28;20087;-78
2021/04/24 11:11:21;;;;;;;6.00;4.53;;;17.60;99.90;;;;;;5019251;28;20037;-80
2021/04/24 11:13:52;;;;;;;9.63;4.55;;;17.70;99.90;;;;;;4990112;28;20045;-77
2021/04/24 11:16:19;;;;;;;9.00;3.75;;;17.70;99.90;;;;;;5015809;28;20111;-77
2021/04/24 11:18:50;;;;;;;5.85;3.85;;;17.70;99.90;;;;;;5021615;28;20022;-78
2021/04/24 11:21:20;;;;;;;7.97;4.28;;;17.80;99.90;;;;;;5007362;28;20213;-78
2021/04/24 11:23:46;;;;;;;6.97;4.38;;;17.90;99.90;;;;;;5005928;28;20123;-78
2021/04/24 11:26:13;;;;;;;5.53;4.53;;;17.80;99.90;;;;;;5002500;28;20056;-79
2021/04/24 11:29:09;;;;;;;4.60;4.20;;;17.70;99.90;;;;;;5001046;28;20041;-77
2021/04/24 11:31:52;;;;;;;9.98;4.57;;;17.50;99.90;;;;;;5000496;28;20078;-78
2021/04/24 11:34:40;;;;;;;7.95;4.82;;;17.70;99.90;;;;;;5002003;28;20052;-76
2021/04/24 11:37:20;;;;;;;5.32;4.32;;;17.70;99.90;;;;;;4982129;28;20026;-77
2021/04/24 11:40:11;;;;;;;6.55;3.85;;;17.80;99.90;;;;;;5006948;28;20141;-77
2021/04/24 11:42:49;;;;;;;8.82;4.25;;;17.80;99.90;;;;;;5005359;28;20026;-78
2021/04/24 11:45:16;;;;;;;8.95;4.53;;;17.70;99.90;;;;;;5012747;28;20118;-77
2021/04/24 11:47:47;;;;;;;5.35;3.78;;;17.70;99.90;;;;;;5010198;28;20022;-69
2021/04/24 11:50:14;;;;;;;5.22;3.60;;;17.60;99.90;;;;;;5012778;28;20025;-73
2021/04/24 11:52:50;;;;;;;5.25;4.60;;;17.60;99.90;;;;;;5013372;28;20067;-72
2021/04/24 11:55:19;;;;;;;8.75;4.53;;;17.60;99.90;;;;;;5011992;28;20029;-73
2021/04/24 11:57:44;;;;;;;7.28;6.28;;;17.50;99.90;;;;;;5009812;28;20395;-73
2021/04/24 12:00:11;;;;;;;8.90;4.90;;;17.70;99.90;;;;;;5009328;28;20026;-73
2021/04/24 12:02:36;;;;;;;8.77;5.38;;;17.60;99.90;;;;;;5008942;28;20549;-73
2021/04/24 12:05:09;;;;;;;5.18;4.05;;;17.50;99.90;;;;;;5008588;28;20097;-74
2021/04/24 12:07:43;;;;;;;5.70;4.63;;;17.50;99.90;;;;;;5006699;28;20568;-72
2021/04/24 12:10:12;;;;;;;7.53;6.38;;;17.70;99.90;;;;;;5011937;28;20025;-73
2021/04/24 12:12:41;;;;;;;13.73;4.72;;;17.90;99.90;;;;;;5005363;28;20046;-70
2021/04/24 12:15:11;;;;;;;6.25;4.03;;;17.90;99.90;;;;;;5011036;28;20077;-74
2021/04/24 12:17:55;;;;;;;6.55;4.88;;;17.80;99.90;;;;;;4993023;28;20029;-72
2021/04/24 12:20:29;;;;;;;7.28;4.72;;;17.80;99.90;;;;;;5012974;28;20145;-71
2021/04/24 12:22:56;;;;;;;5.00;4.60;;;17.90;99.90;;;;;;5006930;28;20030;-72
2021/04/24 12:25:27;;;;;;;9.05;5.35;;;18.00;99.90;;;;;;5011958;28;20369;-72
2021/04/24 12:27:55;;;;;;;7.20;4.70;;;18.00;99.90;;;;;;5006235;28;20021;-73
2021/04/24 12:30:25;;;;;;;5.63;4.18;;;17.90;99.90;;;;;;5010262;28;20022;-71
2021/04/24 12:32:56;;;;;;;7.78;4.57;;;17.90;99.90;;;;;;5013087;28;20028;-71
2021/04/24 12:35:27;;;;;;;6.82;4.88;;;18.00;99.90;;;;;;5012691;28;20029;-72
2021/04/24 12:38:05;;;;;;;21.15;5.40;;;18.00;99.90;;;;;;5008273;28;20385;-71
2021/04/24 12:40:37;;;;;;;6.03;4.88;;;17.90;99.90;;;;;;4999879;28;20243;-71
2021/04/24 12:43:09;;;;;;;;;;;17.80;99.90;;;;;;4994893;28;20033;-70
2021/04/24 12:45:37;;;;;;;6.15;5.13;;;17.70;99.90;;;;;;5007487;28;19905;-72
2021/04/24 12:48:05;;;;;;;10.20;4.80;;;17.70;99.90;;;;;;5011957;28;20029;-72